sensor_id;sensor_type;location;lat;lon;timestamp;P1;durP1;ratioP1;P2;durP2;ratioP2
39242;SDS011;29823;47.404;8.566;2022-12-07T00:01:10;48.05;;;26.80;;
39242;SDS011;29823;47.404;8.566;2022-12-07T00:03:40;49.22;;;26.35;;
39242;SDS011;29823;47.404;8.566;2022-12-07T00:06:10;40.42;;;24.45;;
39242;SDS011;29823;47.404;8.566;2022-12-07T00:08:39;47.28;;;25.42;;
39242;SDS011;29823;47.404;8.566;2022-12-07T00:11:09;46.22;;;25.77;;
39242;SDS011;29823;47.404;8.566;2022-12-07T00:13:39;45.63;;;25.70;;
39242;SDS011;29823;47.404;8.566;2022-12-07T00:16:14;46.15;;;25.30;;
39242;SDS011;29823;47.404;8.566;2022-12-07T00:18:43;47.58;;;25.98;;
39242;SDS011;29823;47.404;8.566;2022-12-07T00:21:13;46.40;;;25.40;;
39242;SDS011;29823;47.404;8.566;2022-12-07T00:23:43;44.22;;;25.80;;
39242;SDS011;29823;47.404;8.566;2022-12-07T00:26:16;44.20;;;25.27;;
39242;SDS011;29823;47.404;8.566;2022-12-07T00:28:45;46.90;;;26.57;;
39242;SDS011;29823;47.404;8.566;2022-12-07T00:31:14;46.10;;;25.08;;
39242;SDS011;29823;47.404;8.566;2022-12-07T00:33:44;48.45;;;26.35;;
39242;SDS011;29823;47.404;8.566;2022-12-07T00:36:13;49.80;;;26.63;;
39242;SDS011;29823;47.404;8.566;2022-12-07T00:38:48;50.70;;;27.48;;
39242;SDS011;29823;47.404;8.566;2022-12-07T00:41:18;47.20;;;25.58;;
39242;SDS011;29823;47.404;8.566;2022-12-07T00:43:48;42.75;;;25.63;;
39242;SDS011;29823;47.404;8.566;2022-12-07T00:46:16;41.00;;;24.23;;
39242;SDS011;29823;47.404;8.566;2022-12-07T00:48:45;53.10;;;28.23;;
39242;SDS011;29823;47.404;8.566;2022-12-07T00:51:14;44.53;;;26.15;;
39242;SDS011;29823;47.404;8.566;2022-12-07T00:53:42;45.40;;;26.65;;
39242;SDS011;29823;47.404;8.566;2022-12-07T00:56:11;49.88;;;27.77;;
39242;SDS011;29823;47.404;8.566;2022-12-07T00:58:42;45.90;;;26.63;;
39242;SDS011;29823;47.404;8.566;2022-12-07T01:01:10;45.88;;;27.08;;
39242;SDS011;29823;47.404;8.566;2022-12-07T01:03:38;52.22;;;27.98;;
39242;SDS011;29823;47.404;8.566;2022-12-07T01:06:06;55.35;;;28.70;;
39242;SDS011;29823;47.404;8.566;2022-12-07T01:08:34;47.67;;;27.35;;
39242;SDS011;29823;47.404;8.566;2022-12-07T01:11:03;48.72;;;26.83;;
39242;SDS011;29823;47.404;8.566;2022-12-07T01:13:33;49.67;;;27.38;;
39242;SDS011;29823;47.404;8.566;2022-12-07T01:16:04;50.67;;;26.33;;
39242;SDS011;29823;47.404;8.566;2022-12-07T01:18:34;48.00;;;26.73;;
39242;SDS011;29823;47.404;8.566;2022-12-07T01:21:04;50.60;;;26.92;;
39242;SDS011;29823;47.404;8.566;2022-12-07T01:23:33;48.72;;;26.45;;
39242;SDS011;29823;47.404;8.566;2022-12-07T01:26:02;45.53;;;25.42;;
39242;SDS011;29823;47.404;8.566;2022-12-07T01:28:31;45.53;;;25.50;;
39242;SDS011;29823;47.404;8.566;2022-12-07T01:31:01;46.78;;;26.17;;
39242;SDS011;29823;47.404;8.566;2022-12-07T01:33:32;49.15;;;26.55;;
39242;SDS011;29823;47.404;8.566;2022-12-07T01:36:02;51.90;;;27.00;;
39242;SDS011;29823;47.404;8.566;2022-12-07T01:38:30;44.60;;;25.73;;
39242;SDS011;29823;47.404;8.566;2022-12-07T01:41:00;44.42;;;26.30;;
39242;SDS011;29823;47.404;8.566;2022-12-07T01:43:30;50.92;;;27.48;;
39242;SDS011;29823;47.404;8.566;2022-12-07T01:46:00;46.22;;;26.35;;
39242;SDS011;29823;47.404;8.566;2022-12-07T01:48:29;49.10;;;26.25;;
39242;SDS011;29823;47.404;8.566;2022-12-07T01:51:04;46.13;;;25.52;;
39242;SDS011;29823;47.404;8.566;2022-12-07T01:53:36;47.15;;;25.85;;
39242;SDS011;29823;47.404;8.566;2022-12-07T01:56:07;45.80;;;25.93;;
39242;SDS011;29823;47.404;8.566;2022-12-07T01:58:38;52.30;;;27.95;;
39242;SDS011;29823;47.404;8.566;2022-12-07T02:01:09;44.53;;;25.65;;
39242;SDS011;29823;47.404;8.566;2022-12-07T02:03:42;46.00;;;24.65;;
39242;SDS011;29823;47.404;8.566;2022-12-07T02:06:15;46.95;;;27.17;;
39242;SDS011;29823;47.404;8.566;2022-12-07T02:08:46;50.05;;;28.70;;
39242;SDS011;29823;47.404;8.566;2022-12-07T02:11:14;49.88;;;26.85;;
39242;SDS011;29823;47.404;8.566;2022-12-07T02:13:44;48.15;;;26.20;;
39242;SDS011;29823;47.404;8.566;2022-12-07T02:16:16;45.88;;;25.40;;
39242;SDS011;29823;47.404;8.566;2022-12-07T02:19:01;47.25;;;26.13;;
39242;SDS011;29823;47.404;8.566;2022-12-07T02:21:53;43.38;;;24.75;;
39242;SDS011;29823;47.404;8.566;2022-12-07T02:24:31;46.88;;;25.08;;
39242;SDS011;29823;47.404;8.566;2022-12-07T02:27:32;43.75;;;24.45;;
39242;SDS011;29823;47.404;8.566;2022-12-07T02:30:09;46.67;;;25.08;;
39242;SDS011;29823;47.404;8.566;2022-12-07T02:32:44;49.45;;;24.55;;
39242;SDS011;29823;47.404;8.566;2022-12-07T02:35:19;46.35;;;25.20;;
39242;SDS011;29823;47.404;8.566;2022-12-07T02:37:53;45.28;;;26.42;;
39242;SDS011;29823;47.404;8.566;2022-12-07T02:40:27;44.28;;;24.35;;
39242;SDS011;29823;47.404;8.566;2022-12-07T02:43:02;44.67;;;24.73;;
39242;SDS011;29823;47.404;8.566;2022-12-07T02:45:35;48.53;;;27.13;;
39242;SDS011;29823;47.404;8.566;2022-12-07T02:48:07;42.25;;;24.23;;
39242;SDS011;29823;47.404;8.566;2022-12-07T02:50:37;49.10;;;26.85;;
39242;SDS011;29823;47.404;8.566;2022-12-07T02:53:05;46.15;;;26.13;;
39242;SDS011;29823;47.404;8.566;2022-12-07T02:55:33;44.22;;;26.70;;
39242;SDS011;29823;47.404;8.566;2022-12-07T02:58:15;48.08;;;26.70;;
39242;SDS011;29823;47.404;8.566;2022-12-07T03:00:54;45.30;;;25.80;;
39242;SDS011;29823;47.404;8.566;2022-12-07T03:03:33;47.77;;;27.03;;
39242;SDS011;29823;47.404;8.566;2022-12-07T03:06:06;45.60;;;25.52;;
39242;SDS011;29823;47.404;8.566;2022-12-07T03:08:47;46.70;;;26.85;;
39242;SDS011;29823;47.404;8.566;2022-12-07T03:11:22;42.80;;;24.88;;
39242;SDS011;29823;47.404;8.566;2022-12-07T03:13:56;44.85;;;24.45;;
39242;SDS011;29823;47.404;8.566;2022-12-07T03:16:31;46.25;;;25.58;;
39242;SDS011;29823;47.404;8.566;2022-12-07T03:19:04;43.72;;;24.77;;
39242;SDS011;29823;47.404;8.566;2022-12-07T03:21:37;45.00;;;26.38;;
39242;SDS011;29823;47.404;8.566;2022-12-07T03:24:09;47.30;;;25.38;;
39242;SDS011;29823;47.404;8.566;2022-12-07T03:26:41;45.58;;;25.95;;
39242;SDS011;29823;47.404;8.566;2022-12-07T03:31:46;44.88;;;25.15;;
39242;SDS011;29823;47.404;8.566;2022-12-07T03:34:20;47.30;;;25.73;;
39242;SDS011;29823;47.404;8.566;2022-12-07T03:36:52;48.53;;;25.88;;
39242;SDS011;29823;47.404;8.566;2022-12-07T03:39:25;47.33;;;26.50;;
39242;SDS011;29823;47.404;8.566;2022-12-07T03:41:57;50.03;;;27.83;;
39242;SDS011;29823;47.404;8.566;2022-12-07T03:44:28;40.55;;;23.77;;
39242;SDS011;29823;47.404;8.566;2022-12-07T03:46:59;49.42;;;25.80;;
39242;SDS011;29823;47.404;8.566;2022-12-07T03:49:32;50.55;;;25.67;;
39242;SDS011;29823;47.404;8.566;2022-12-07T03:52:08;44.90;;;24.58;;
39242;SDS011;29823;47.404;8.566;2022-12-07T03:54:48;49.83;;;27.33;;
39242;SDS011;29823;47.404;8.566;2022-12-07T03:57:24;49.90;;;27.80;;
39242;SDS011;29823;47.404;8.566;2022-12-07T03:59:54;47.45;;;26.70;;
39242;SDS011;29823;47.404;8.566;2022-12-07T04:02:24;55.20;;;28.40;;
39242;SDS011;29823;47.404;8.566;2022-12-07T04:04:57;51.00;;;26.02;;
39242;SDS011;29823;47.404;8.566;2022-12-07T04:07:26;54.27;;;29.10;;
39242;SDS011;29823;47.404;8.566;2022-12-07T04:09:53;46.38;;;26.40;;
39242;SDS011;29823;47.404;8.566;2022-12-07T04:12:22;48.78;;;26.67;;
39242;SDS011;29823;47.404;8.566;2022-12-07T04:14:49;48.05;;;27.20;;
39242;SDS011;29823;47.404;8.566;2022-12-07T04:17:17;49.85;;;26.48;;
39242;SDS011;29823;47.404;8.566;2022-12-07T04:19:47;50.67;;;26.92;;
39242;SDS011;29823;47.404;8.566;2022-12-07T04:22:14;51.25;;;26.75;;
39242;SDS011;29823;47.404;8.566;2022-12-07T04:24:42;51.40;;;26.45;;
39242;SDS011;29823;47.404;8.566;2022-12-07T04:27:10;46.92;;;25.83;;
39242;SDS011;29823;47.404;8.566;2022-12-07T04:29:40;53.22;;;27.67;;
39242;SDS011;29823;47.404;8.566;2022-12-07T04:32:07;51.42;;;27.33;;
39242;SDS011;29823;47.404;8.566;2022-12-07T04:34:36;46.60;;;26.40;;
39242;SDS011;29823;47.404;8.566;2022-12-07T04:37:05;45.92;;;25.42;;
39242;SDS011;29823;47.404;8.566;2022-12-07T04:39:33;46.53;;;25.48;;
39242;SDS011;29823;47.404;8.566;2022-12-07T04:42:01;53.00;;;28.17;;
39242;SDS011;29823;47.404;8.566;2022-12-07T04:44:29;53.22;;;27.42;;
39242;SDS011;29823;47.404;8.566;2022-12-07T04:46:58;49.30;;;25.77;;
39242;SDS011;29823;47.404;8.566;2022-12-07T04:49:26;54.13;;;27.83;;
39242;SDS011;29823;47.404;8.566;2022-12-07T04:51:53;55.15;;;27.58;;
39242;SDS011;29823;47.404;8.566;2022-12-07T04:54:23;52.08;;;27.30;;
39242;SDS011;29823;47.404;8.566;2022-12-07T04:56:51;53.50;;;27.35;;
39242;SDS011;29823;47.404;8.566;2022-12-07T04:59:19;49.85;;;26.10;;
39242;SDS011;29823;47.404;8.566;2022-12-07T05:01:47;47.55;;;25.80;;
39242;SDS011;29823;47.404;8.566;2022-12-07T05:04:15;49.08;;;27.13;;
39242;SDS011;29823;47.404;8.566;2022-12-07T05:06:46;50.25;;;28.85;;
39242;SDS011;29823;47.404;8.566;2022-12-07T05:09:14;51.88;;;27.88;;
39242;SDS011;29823;47.404;8.566;2022-12-07T05:11:43;51.20;;;28.92;;
39242;SDS011;29823;47.404;8.566;2022-12-07T05:14:12;50.25;;;27.13;;
39242;SDS011;29823;47.404;8.566;2022-12-07T05:16:42;48.67;;;26.52;;
39242;SDS011;29823;47.404;8.566;2022-12-07T05:19:11;49.85;;;27.38;;
39242;SDS011;29823;47.404;8.566;2022-12-07T05:21:39;54.08;;;28.38;;
39242;SDS011;29823;47.404;8.566;2022-12-07T05:24:07;51.97;;;27.00;;
39242;SDS011;29823;47.404;8.566;2022-12-07T05:26:37;49.28;;;26.15;;
39242;SDS011;29823;47.404;8.566;2022-12-07T05:29:07;47.30;;;26.33;;
39242;SDS011;29823;47.404;8.566;2022-12-07T05:31:37;53.92;;;26.60;;
39242;SDS011;29823;47.404;8.566;2022-12-07T05:34:05;52.90;;;26.25;;
39242;SDS011;29823;47.404;8.566;2022-12-07T05:36:33;50.42;;;26.90;;
39242;SDS011;29823;47.404;8.566;2022-12-07T05:39:01;48.92;;;27.00;;
39242;SDS011;29823;47.404;8.566;2022-12-07T05:41:28;51.58;;;26.98;;
39242;SDS011;29823;47.404;8.566;2022-12-07T05:44:15;47.65;;;26.08;;
39242;SDS011;29823;47.404;8.566;2022-12-07T05:46:43;50.50;;;26.88;;
39242;SDS011;29823;47.404;8.566;2022-12-07T05:49:10;47.35;;;26.35;;
39242;SDS011;29823;47.404;8.566;2022-12-07T05:51:39;49.33;;;26.67;;
39242;SDS011;29823;47.404;8.566;2022-12-07T05:54:06;51.78;;;27.38;;
39242;SDS011;29823;47.404;8.566;2022-12-07T05:56:35;53.35;;;27.25;;
39242;SDS011;29823;47.404;8.566;2022-12-07T05:59:03;48.78;;;26.92;;
39242;SDS011;29823;47.404;8.566;2022-12-07T06:01:49;49.63;;;26.75;;
39242;SDS011;29823;47.404;8.566;2022-12-07T06:04:18;51.50;;;26.90;;
39242;SDS011;29823;47.404;8.566;2022-12-07T06:06:47;50.28;;;25.65;;
39242;SDS011;29823;47.404;8.566;2022-12-07T06:09:15;47.53;;;25.35;;
39242;SDS011;29823;47.404;8.566;2022-12-07T06:11:44;51.63;;;27.80;;
39242;SDS011;29823;47.404;8.566;2022-12-07T06:14:29;54.50;;;27.02;;
39242;SDS011;29823;47.404;8.566;2022-12-07T06:16:58;48.45;;;26.33;;
39242;SDS011;29823;47.404;8.566;2022-12-07T06:19:27;55.22;;;26.70;;
39242;SDS011;29823;47.404;8.566;2022-12-07T06:21:55;51.05;;;27.92;;
39242;SDS011;29823;47.404;8.566;2022-12-07T06:24:23;47.53;;;25.65;;
39242;SDS011;29823;47.404;8.566;2022-12-07T06:26:51;54.80;;;28.45;;
39242;SDS011;29823;47.404;8.566;2022-12-07T06:29:18;51.90;;;28.73;;
39242;SDS011;29823;47.404;8.566;2022-12-07T06:31:46;49.85;;;27.55;;
39242;SDS011;29823;47.404;8.566;2022-12-07T06:34:16;56.35;;;27.30;;
39242;SDS011;29823;47.404;8.566;2022-12-07T06:36:48;51.30;;;28.02;;
39242;SDS011;29823;47.404;8.566;2022-12-07T06:39:20;53.45;;;28.05;;
39242;SDS011;29823;47.404;8.566;2022-12-07T06:41:49;54.75;;;28.77;;
39242;SDS011;29823;47.404;8.566;2022-12-07T06:44:19;53.05;;;28.15;;
39242;SDS011;29823;47.404;8.566;2022-12-07T06:46:47;55.05;;;30.17;;
39242;SDS011;29823;47.404;8.566;2022-12-07T06:49:17;57.03;;;29.92;;
39242;SDS011;29823;47.404;8.566;2022-12-07T06:51:45;52.83;;;27.98;;
39242;SDS011;29823;47.404;8.566;2022-12-07T06:54:13;55.97;;;28.23;;
39242;SDS011;29823;47.404;8.566;2022-12-07T06:56:42;56.95;;;29.35;;
39242;SDS011;29823;47.404;8.566;2022-12-07T06:59:10;58.50;;;31.30;;
39242;SDS011;29823;47.404;8.566;2022-12-07T07:01:38;58.55;;;29.65;;
39242;SDS011;29823;47.404;8.566;2022-12-07T07:04:06;69.30;;;31.55;;
39242;SDS011;29823;47.404;8.566;2022-12-07T07:06:35;65.00;;;31.65;;
39242;SDS011;29823;47.404;8.566;2022-12-07T07:09:03;61.90;;;30.80;;
39242;SDS011;29823;47.404;8.566;2022-12-07T07:11:31;58.28;;;31.35;;
39242;SDS011;29823;47.404;8.566;2022-12-07T07:13:59;61.65;;;31.35;;
39242;SDS011;29823;47.404;8.566;2022-12-07T07:16:28;66.95;;;31.08;;
39242;SDS011;29823;47.404;8.566;2022-12-07T07:18:57;55.83;;;29.20;;
39242;SDS011;29823;47.404;8.566;2022-12-07T07:21:25;65.85;;;30.80;;
39242;SDS011;29823;47.404;8.566;2022-12-07T07:23:55;62.55;;;30.10;;
39242;SDS011;29823;47.404;8.566;2022-12-07T07:26:23;69.90;;;30.92;;
39242;SDS011;29823;47.404;8.566;2022-12-07T07:28:51;59.80;;;31.30;;
39242;SDS011;29823;47.404;8.566;2022-12-07T07:31:19;73.35;;;32.85;;
39242;SDS011;29823;47.404;8.566;2022-12-07T07:33:46;64.72;;;30.48;;
39242;SDS011;29823;47.404;8.566;2022-12-07T07:36:14;63.25;;;31.85;;
39242;SDS011;29823;47.404;8.566;2022-12-07T07:38:42;66.47;;;32.45;;
39242;SDS011;29823;47.404;8.566;2022-12-07T07:41:11;65.00;;;32.03;;
39242;SDS011;29823;47.404;8.566;2022-12-07T07:43:39;70.65;;;32.92;;
39242;SDS011;29823;47.404;8.566;2022-12-07T07:46:07;68.00;;;32.53;;
39242;SDS011;29823;47.404;8.566;2022-12-07T07:48:35;67.53;;;32.58;;
39242;SDS011;29823;47.404;8.566;2022-12-07T07:51:04;78.15;;;33.47;;
39242;SDS011;29823;47.404;8.566;2022-12-07T07:53:33;67.60;;;33.63;;
39242;SDS011;29823;47.404;8.566;2022-12-07T07:56:01;79.32;;;35.75;;
39242;SDS011;29823;47.404;8.566;2022-12-07T07:58:31;75.13;;;34.42;;
39242;SDS011;29823;47.404;8.566;2022-12-07T08:01:03;74.07;;;34.60;;
39242;SDS011;29823;47.404;8.566;2022-12-07T08:03:32;71.15;;;34.05;;
39242;SDS011;29823;47.404;8.566;2022-12-07T08:06:01;74.47;;;35.05;;
39242;SDS011;29823;47.404;8.566;2022-12-07T08:08:29;76.90;;;34.38;;
39242;SDS011;29823;47.404;8.566;2022-12-07T08:10:57;74.55;;;33.80;;
39242;SDS011;29823;47.404;8.566;2022-12-07T08:13:27;75.07;;;35.83;;
39242;SDS011;29823;47.404;8.566;2022-12-07T08:15:58;74.97;;;34.88;;
39242;SDS011;29823;47.404;8.566;2022-12-07T08:18:31;79.13;;;34.45;;
39242;SDS011;29823;47.404;8.566;2022-12-07T08:21:02;74.18;;;34.50;;
39242;SDS011;29823;47.404;8.566;2022-12-07T08:23:31;74.57;;;34.28;;
39242;SDS011;29823;47.404;8.566;2022-12-07T08:26:06;79.22;;;35.78;;
39242;SDS011;29823;47.404;8.566;2022-12-07T08:28:35;82.32;;;34.55;;
39242;SDS011;29823;47.404;8.566;2022-12-07T08:31:05;82.70;;;36.08;;
39242;SDS011;29823;47.404;8.566;2022-12-07T08:33:35;80.57;;;36.13;;
39242;SDS011;29823;47.404;8.566;2022-12-07T08:36:04;77.38;;;35.78;;
39242;SDS011;29823;47.404;8.566;2022-12-07T08:38:33;77.75;;;35.60;;
39242;SDS011;29823;47.404;8.566;2022-12-07T08:41:02;86.90;;;35.38;;
39242;SDS011;29823;47.404;8.566;2022-12-07T08:43:30;77.00;;;34.05;;
39242;SDS011;29823;47.404;8.566;2022-12-07T08:46:00;83.80;;;36.10;;
39242;SDS011;29823;47.404;8.566;2022-12-07T08:48:37;82.85;;;36.47;;
39242;SDS011;29823;47.404;8.566;2022-12-07T08:53:36;87.50;;;34.85;;
39242;SDS011;29823;47.404;8.566;2022-12-07T08:56:05;78.75;;;36.25;;
39242;SDS011;29823;47.404;8.566;2022-12-07T08:58:34;122.75;;;52.78;;
39242;SDS011;29823;47.404;8.566;2022-12-07T09:01:04;89.78;;;37.25;;
39242;SDS011;29823;47.404;8.566;2022-12-07T09:03:34;81.00;;;36.15;;
39242;SDS011;29823;47.404;8.566;2022-12-07T09:06:01;84.72;;;34.33;;
39242;SDS011;29823;47.404;8.566;2022-12-07T09:08:31;81.18;;;34.22;;
39242;SDS011;29823;47.404;8.566;2022-12-07T09:11:02;83.90;;;37.47;;
39242;SDS011;29823;47.404;8.566;2022-12-07T09:13:30;84.15;;;35.03;;
39242;SDS011;29823;47.404;8.566;2022-12-07T09:15:58;73.28;;;35.60;;
39242;SDS011;29823;47.404;8.566;2022-12-07T09:18:26;80.03;;;35.65;;
39242;SDS011;29823;47.404;8.566;2022-12-07T09:20:55;82.30;;;35.00;;
39242;SDS011;29823;47.404;8.566;2022-12-07T09:23:24;79.47;;;35.13;;
39242;SDS011;29823;47.404;8.566;2022-12-07T09:25:52;82.18;;;35.20;;
39242;SDS011;29823;47.404;8.566;2022-12-07T09:28:20;80.95;;;35.55;;
39242;SDS011;29823;47.404;8.566;2022-12-07T09:30:48;79.10;;;36.67;;
39242;SDS011;29823;47.404;8.566;2022-12-07T09:33:36;84.40;;;37.67;;
39242;SDS011;29823;47.404;8.566;2022-12-07T09:36:06;79.57;;;35.65;;
39242;SDS011;29823;47.404;8.566;2022-12-07T09:38:35;75.03;;;35.72;;
39242;SDS011;29823;47.404;8.566;2022-12-07T09:41:04;82.18;;;33.90;;
39242;SDS011;29823;47.404;8.566;2022-12-07T09:43:34;79.35;;;35.20;;
39242;SDS011;29823;47.404;8.566;2022-12-07T09:46:03;66.72;;;33.20;;
39242;SDS011;29823;47.404;8.566;2022-12-07T09:48:32;72.80;;;34.28;;
39242;SDS011;29823;47.404;8.566;2022-12-07T09:51:02;72.50;;;32.35;;
39242;SDS011;29823;47.404;8.566;2022-12-07T09:53:48;71.00;;;32.35;;
39242;SDS011;29823;47.404;8.566;2022-12-07T09:56:17;68.40;;;33.00;;
39242;SDS011;29823;47.404;8.566;2022-12-07T09:58:46;65.75;;;31.13;;
39242;SDS011;29823;47.404;8.566;2022-12-07T10:01:16;65.93;;;31.55;;
39242;SDS011;29823;47.404;8.566;2022-12-07T10:03:48;59.65;;;28.17;;
39242;SDS011;29823;47.404;8.566;2022-12-07T10:06:19;62.97;;;30.40;;
39242;SDS011;29823;47.404;8.566;2022-12-07T10:08:47;59.10;;;29.85;;
39242;SDS011;29823;47.404;8.566;2022-12-07T10:11:15;58.60;;;29.20;;
39242;SDS011;29823;47.404;8.566;2022-12-07T10:13:43;57.05;;;27.98;;
39242;SDS011;29823;47.404;8.566;2022-12-07T10:16:30;58.00;;;29.00;;
39242;SDS011;29823;47.404;8.566;2022-12-07T10:19:23;55.58;;;28.63;;
39242;SDS011;29823;47.404;8.566;2022-12-07T10:22:04;52.88;;;27.02;;
39242;SDS011;29823;47.404;8.566;2022-12-07T10:24:37;52.50;;;26.17;;
39242;SDS011;29823;47.404;8.566;2022-12-07T10:27:15;56.97;;;28.23;;
39242;SDS011;29823;47.404;8.566;2022-12-07T10:29:47;51.05;;;27.45;;
39242;SDS011;29823;47.404;8.566;2022-12-07T10:32:28;50.20;;;27.50;;
39242;SDS011;29823;47.404;8.566;2022-12-07T10:37:48;47.65;;;25.30;;
39242;SDS011;29823;47.404;8.566;2022-12-07T10:40:23;52.47;;;26.77;;
39242;SDS011;29823;47.404;8.566;2022-12-07T10:43:01;47.10;;;25.95;;
39242;SDS011;29823;47.404;8.566;2022-12-07T10:45:31;48.13;;;25.98;;
39242;SDS011;29823;47.404;8.566;2022-12-07T10:48:08;42.42;;;24.55;;
39242;SDS011;29823;47.404;8.566;2022-12-07T10:50:52;49.25;;;26.15;;
39242;SDS011;29823;47.404;8.566;2022-12-07T10:53:38;49.00;;;25.42;;
39242;SDS011;29823;47.404;8.566;2022-12-07T10:56:23;44.33;;;23.70;;
39242;SDS011;29823;47.404;8.566;2022-12-07T10:59:08;53.45;;;24.25;;
39242;SDS011;29823;47.404;8.566;2022-12-07T11:01:50;45.78;;;23.00;;
39242;SDS011;29823;47.404;8.566;2022-12-07T11:04:26;47.22;;;23.75;;
39242;SDS011;29823;47.404;8.566;2022-12-07T11:07:01;44.55;;;24.13;;
39242;SDS011;29823;47.404;8.566;2022-12-07T11:09:43;44.85;;;25.52;;
39242;SDS011;29823;47.404;8.566;2022-12-07T11:12:52;44.88;;;24.55;;
39242;SDS011;29823;47.404;8.566;2022-12-07T11:15:31;43.97;;;24.27;;
39242;SDS011;29823;47.404;8.566;2022-12-07T11:18:10;44.42;;;26.48;;
39242;SDS011;29823;47.404;8.566;2022-12-07T11:20:43;44.97;;;26.10;;
39242;SDS011;29823;47.404;8.566;2022-12-07T11:23:19;45.40;;;26.52;;
39242;SDS011;29823;47.404;8.566;2022-12-07T11:25:59;45.50;;;26.13;;
39242;SDS011;29823;47.404;8.566;2022-12-07T11:28:41;49.17;;;25.95;;
39242;SDS011;29823;47.404;8.566;2022-12-07T11:31:28;45.88;;;26.42;;
39242;SDS011;29823;47.404;8.566;2022-12-07T11:34:03;46.63;;;26.17;;
39242;SDS011;29823;47.404;8.566;2022-12-07T11:36:37;37.95;;;22.92;;
39242;SDS011;29823;47.404;8.566;2022-12-07T11:39:12;36.07;;;21.83;;
39242;SDS011;29823;47.404;8.566;2022-12-07T11:41:51;38.15;;;22.50;;
39242;SDS011;29823;47.404;8.566;2022-12-07T11:44:26;36.72;;;22.17;;
39242;SDS011;29823;47.404;8.566;2022-12-07T11:47:01;40.30;;;22.58;;
39242;SDS011;29823;47.404;8.566;2022-12-07T11:49:39;39.95;;;22.35;;
39242;SDS011;29823;47.404;8.566;2022-12-07T11:52:12;41.15;;;23.00;;
39242;SDS011;29823;47.404;8.566;2022-12-07T11:54:49;38.47;;;22.98;;
39242;SDS011;29823;47.404;8.566;2022-12-07T11:57:22;38.28;;;21.50;;
39242;SDS011;29823;47.404;8.566;2022-12-07T11:59:57;35.00;;;20.08;;
39242;SDS011;29823;47.404;8.566;2022-12-07T12:02:31;30.15;;;17.35;;
39242;SDS011;29823;47.404;8.566;2022-12-07T12:05:06;32.55;;;18.13;;
39242;SDS011;29823;47.404;8.566;2022-12-07T12:07:42;27.20;;;16.85;;
39242;SDS011;29823;47.404;8.566;2022-12-07T12:10:35;28.48;;;16.83;;
39242;SDS011;29823;47.404;8.566;2022-12-07T12:13:23;34.53;;;18.67;;
39242;SDS011;29823;47.404;8.566;2022-12-07T12:16:38;27.23;;;17.00;;
39242;SDS011;29823;47.404;8.566;2022-12-07T12:19:27;30.88;;;17.52;;
39242;SDS011;29823;47.404;8.566;2022-12-07T12:22:02;30.55;;;17.55;;
39242;SDS011;29823;47.404;8.566;2022-12-07T12:24:37;29.20;;;16.60;;
39242;SDS011;29823;47.404;8.566;2022-12-07T12:27:08;31.88;;;18.27;;
39242;SDS011;29823;47.404;8.566;2022-12-07T12:29:44;31.23;;;18.75;;
39242;SDS011;29823;47.404;8.566;2022-12-07T12:32:20;30.27;;;18.17;;
39242;SDS011;29823;47.404;8.566;2022-12-07T12:35:00;29.88;;;17.20;;
39242;SDS011;29823;47.404;8.566;2022-12-07T12:37:47;28.65;;;17.52;;
39242;SDS011;29823;47.404;8.566;2022-12-07T12:49:30;26.23;;;12.90;;
39242;SDS011;29823;47.404;8.566;2022-12-07T12:55:17;23.63;;;13.32;;
39242;SDS011;29823;47.404;8.566;2022-12-07T12:57:52;21.17;;;11.55;;
39242;SDS011;29823;47.404;8.566;2022-12-07T13:04:21;19.35;;;11.77;;
39242;SDS011;29823;47.404;8.566;2022-12-07T13:07:02;20.60;;;11.73;;
39242;SDS011;29823;47.404;8.566;2022-12-07T13:09:31;20.00;;;13.00;;
39242;SDS011;29823;47.404;8.566;2022-12-07T13:12:03;19.80;;;12.35;;
39242;SDS011;29823;47.404;8.566;2022-12-07T13:14:39;19.08;;;11.65;;
39242;SDS011;29823;47.404;8.566;2022-12-07T13:20:49;21.67;;;12.07;;
39242;SDS011;29823;47.404;8.566;2022-12-07T13:23:23;22.70;;;12.23;;
39242;SDS011;29823;47.404;8.566;2022-12-07T13:25:54;22.40;;;13.50;;
39242;SDS011;29823;47.404;8.566;2022-12-07T13:28:32;22.50;;;13.35;;
39242;SDS011;29823;47.404;8.566;2022-12-07T13:31:04;18.92;;;12.00;;
39242;SDS011;29823;47.404;8.566;2022-12-07T13:33:42;17.08;;;10.90;;
39242;SDS011;29823;47.404;8.566;2022-12-07T13:36:14;17.90;;;10.27;;
39242;SDS011;29823;47.404;8.566;2022-12-07T13:38:49;15.30;;;9.65;;
39242;SDS011;29823;47.404;8.566;2022-12-07T13:41:21;17.15;;;10.63;;
39242;SDS011;29823;47.404;8.566;2022-12-07T13:43:51;23.27;;;13.70;;
39242;SDS011;29823;47.404;8.566;2022-12-07T13:46:24;21.17;;;12.88;;
39242;SDS011;29823;47.404;8.566;2022-12-07T13:48:55;21.38;;;12.48;;
39242;SDS011;29823;47.404;8.566;2022-12-07T13:51:25;24.35;;;12.85;;
39242;SDS011;29823;47.404;8.566;2022-12-07T13:53:55;23.05;;;12.77;;
39242;SDS011;29823;47.404;8.566;2022-12-07T13:56:27;20.83;;;12.90;;
39242;SDS011;29823;47.404;8.566;2022-12-07T13:58:59;22.13;;;13.73;;
39242;SDS011;29823;47.404;8.566;2022-12-07T14:01:28;21.52;;;12.95;;
39242;SDS011;29823;47.404;8.566;2022-12-07T14:06:50;24.70;;;15.00;;
39242;SDS011;29823;47.404;8.566;2022-12-07T14:09:19;21.38;;;12.60;;
39242;SDS011;29823;47.404;8.566;2022-12-07T14:11:49;21.45;;;12.05;;
39242;SDS011;29823;47.404;8.566;2022-12-07T14:14:20;21.65;;;12.43;;
39242;SDS011;29823;47.404;8.566;2022-12-07T14:16:57;21.90;;;12.85;;
39242;SDS011;29823;47.404;8.566;2022-12-07T14:19:44;20.55;;;12.90;;
39242;SDS011;29823;47.404;8.566;2022-12-07T14:22:20;21.77;;;12.10;;
39242;SDS011;29823;47.404;8.566;2022-12-07T14:24:50;20.55;;;11.70;;
39242;SDS011;29823;47.404;8.566;2022-12-07T14:27:29;17.58;;;11.65;;
39242;SDS011;29823;47.404;8.566;2022-12-07T14:30:00;21.30;;;12.68;;
39242;SDS011;29823;47.404;8.566;2022-12-07T14:32:28;21.98;;;11.85;;
39242;SDS011;29823;47.404;8.566;2022-12-07T14:35:00;24.02;;;12.40;;
39242;SDS011;29823;47.404;8.566;2022-12-07T14:37:32;19.45;;;11.23;;
39242;SDS011;29823;47.404;8.566;2022-12-07T14:40:01;16.13;;;10.57;;
39242;SDS011;29823;47.404;8.566;2022-12-07T14:42:30;14.40;;;8.90;;
39242;SDS011;29823;47.404;8.566;2022-12-07T14:44:59;20.75;;;12.75;;
39242;SDS011;29823;47.404;8.566;2022-12-07T14:47:27;12.85;;;7.32;;
39242;SDS011;29823;47.404;8.566;2022-12-07T14:50:16;13.32;;;7.60;;
39242;SDS011;29823;47.404;8.566;2022-12-07T14:52:47;14.90;;;9.35;;
39242;SDS011;29823;47.404;8.566;2022-12-07T14:55:38;23.38;;;11.65;;
39242;SDS011;29823;47.404;8.566;2022-12-07T14:58:06;20.27;;;12.50;;
39242;SDS011;29823;47.404;8.566;2022-12-07T15:00:39;19.83;;;11.77;;
39242;SDS011;29823;47.404;8.566;2022-12-07T15:03:07;18.27;;;10.93;;
39242;SDS011;29823;47.404;8.566;2022-12-07T15:05:35;20.58;;;12.05;;
39242;SDS011;29823;47.404;8.566;2022-12-07T15:08:05;21.33;;;12.10;;
39242;SDS011;29823;47.404;8.566;2022-12-07T15:10:33;23.40;;;14.25;;
39242;SDS011;29823;47.404;8.566;2022-12-07T15:13:05;27.73;;;14.35;;
39242;SDS011;29823;47.404;8.566;2022-12-07T15:15:51;21.50;;;12.82;;
39242;SDS011;29823;47.404;8.566;2022-12-07T15:18:21;25.00;;;14.15;;
39242;SDS011;29823;47.404;8.566;2022-12-07T15:20:50;22.85;;;13.20;;